Time;durP1;ratioP1;P1;durP2;ratioP2;P2;SDS_P1;SDS_P2;PMS_P1;PMS_P2;Temp;Humidity;BMP_temperature;BMP_pressure;BME280_temperature;BME280_humidity;BME280_pressure;Samples;Min_cycle;Max_cycle;Signal;HPM_P1;HPM_P2
2023/02/07 00:01:31;;;;;;;9.70;3.20;;;2.60;92.20;;;;;;4993052;28;20041;-78
2023/02/07 00:03:57;;;;;;;9.20;2.85;;;2.40;96.40;;;;;;4992746;28;20611;-78
2023/02/07 00:06:32;;;;;;;8.40;4.00;;;2.50;85.80;;;;;;4992876;28;20494;-78
2023/02/07 00:08:59;;;;;;;5.45;2.45;;;2.40;86.40;;;;;;4992515;28;20035;-78
2023/02/07 00:11:25;;;;;;;5.97;2.47;;;;;;;;;;4992631;28;20632;-78
2023/02/07 00:13:54;;;;;;;9.35;3.22;;;2.30;87.20;;;;;;4992294;28;20121;-78
2023/02/07 00:16:21;;;;;;;5.90;3.22;;;2.30;94.70;;;;;;4992408;28;20113;-78
2023/02/07 00:18:47;;;;;;;8.15;2.90;;;;;;;;;;4992655;28;20030;-78
2023/02/07 00:21:16;;;;;;;2.92;2.38;;;2.30;97.50;;;;;;4991745;28;20052;-78
2023/02/07 00:23:43;;;;;;;6.43;3.00;;;2.30;95.80;;;;;;4992275;28;20085;-78
2023/02/07 00:26:10;;;;;;;5.50;3.65;;;5.70;89.10;;;;;;5023860;28;20837;-78
2023/02/07 00:28:36;;;;;;;5.65;3.20;;;;;;;;;;4992329;28;20054;-78
2023/02/07 00:31:27;;;;;;;4.72;2.47;;;2.70;86.40;;;;;;4991931;28;20026;-79
2023/02/07 00:33:55;;;;;;;4.78;3.05;;;2.70;96.80;;;;;;4991435;28;20030;-78
2023/02/07 00:36:23;;;;;;;4.88;2.65;;;3.50;86.50;;;;;;4992121;28;20040;-78
2023/02/07 00:38:49;;;;;;;4.47;3.67;;;2.70;85.90;;;;;;4992066;28;20026;-78
2023/02/07 00:41:17;;;;;;;5.25;3.22;;;;;;;;;;4992318;28;20110;-78
2023/02/07 00:43:44;;;;;;;8.50;2.90;;;2.80;96.60;;;;;;4991920;28;20623;-78
2023/02/07 00:46:10;;;;;;;10.70;4.10;;;2.80;85.70;;;;;;4992017;28;20034;-78
2023/02/07 00:48:39;;;;;;;4.40;2.63;;;2.90;96.60;;;;;;4991779;28;20269;-78
2023/02/07 00:51:05;;;;;;;6.00;3.05;;;;;;;;;;4991907;28;20031;-78
2023/02/07 00:53:30;;;;;;;4.97;3.13;;;2.70;96.50;;;;;;5023467;28;20034;-78
2023/02/07 00:55:57;;;;;;;8.32;4.03;;;;;;;;;;5006963;28;20034;-78
2023/02/07 00:58:23;;;;;;;4.68;2.60;;;2.80;85.90;;;;;;4990911;28;20105;-78
2023/02/07 01:00:49;;;;;;;4.68;2.83;;;2.80;86.30;;;;;;4991802;28;20077;-78
2023/02/07 01:03:15;;;;;;;9.18;3.60;;;;;;;;;;4991434;28;20092;-78
2023/02/07 01:05:41;;;;;;;4.72;3.45;;;2.80;89.00;;;;;;4991311;28;20109;-78
2023/02/07 01:08:07;;;;;;;3.92;2.97;;;;;;;;;;4991780;28;20161;-78
2023/02/07 01:10:33;;;;;;;3.00;2.70;;;2.70;86.70;;;;;;4991707;28;20031;-78
2023/02/07 01:12:59;;;;;;;5.40;2.60;;;;;;;;;;4991689;28;20048;-78
2023/02/07 01:15:25;;;;;;;4.95;2.67;;;;;;;;;;4991493;28;20030;-80
2023/02/07 01:17:51;;;;;;;5.25;2.88;;;;;;;;;;4991180;28;20538;-78
2023/02/07 01:20:17;;;;;;;3.50;2.78;;;;;;;;;;4990913;28;20046;-78
2023/02/07 01:22:43;;;;;;;6.65;3.50;;;2.60;86.80;;;;;;4991101;28;20026;-78
2023/02/07 01:25:09;;;;;;;8.05;3.55;;;2.90;87.10;;;;;;4991148;28;20045;-78
2023/02/07 01:27:36;;;;;;;5.95;3.03;;;;;;;;;;4990949;28;20034;-78
2023/02/07 01:30:02;;;;;;;5.93;2.78;;;2.70;91.00;;;;;;4990826;28;20022;-78
2023/02/07 01:32:28;;;;;;;8.95;3.50;;;2.70;95.50;;;;;;4988517;28;20030;-78
2023/02/07 01:34:54;;;;;;;5.45;3.35;;;;;;;;;;4981916;28;20023;-78
2023/02/07 01:37:20;;;;;;;6.70;2.80;;;;;;;;;;4991042;28;20054;-78
2023/02/07 01:39:46;;;;;;;4.15;3.28;;;2.70;90.70;;;;;;4990643;28;20080;-78
2023/02/07 01:42:16;;;;;;;4.15;3.03;;;2.80;86.60;;;;;;4990600;28;20042;-78
2023/02/07 01:44:42;;;;;;;6.20;3.28;;;3.30;97.00;;;;;;4990881;28;20046;-78
2023/02/07 01:47:17;;;;;;;3.17;2.50;;;2.80;86.40;;;;;;4990500;28;20066;-78
2023/02/07 01:49:44;;;;;;;7.13;3.92;;;2.80;96.80;;;;;;4990769;28;20503;-78
2023/02/07 01:52:22;;;;;;;5.93;2.72;;;2.70;86.30;;;;;;4990419;28;20026;-78
2023/02/07 01:54:52;;;;;;;4.03;2.47;;;2.70;86.30;;;;;;4990749;28;20060;-78
2023/02/07 01:57:21;;;;;;;6.47;3.28;;;2.60;86.20;;;;;;4990456;28;20069;-78
2023/02/07 01:59:50;;;;;;;4.90;2.90;;;2.60;95.60;;;;;;4990278;28;20129;-78
2023/02/07 02:02:18;;;;;;;6.40;2.92;;;2.60;97.20;;;;;;4989823;28;20832;-78
2023/02/07 02:04:44;;;;;;;6.25;3.72;;;2.60;96.80;;;;;;4990213;28;20058;-79
2023/02/07 02:07:12;;;;;;;3.63;2.25;;;2.50;90.20;;;;;;4990202;28;20026;-78
2023/02/07 02:09:38;;;;;;;4.20;3.05;;;2.50;97.20;;;;;;4989927;28;20018;-78
2023/02/07 02:12:13;;;;;;;2.78;2.58;;;2.40;97.10;;;;;;4990348;28;20444;-78
2023/02/07 02:14:58;;;;;;;4.60;2.90;;;2.50;93.20;;;;;;4990342;28;20026;-78
2023/02/07 02:17:50;;;;;;;7.55;3.22;;;2.30;97.20;;;;;;4989929;28;20030;-78
2023/02/07 02:20:21;;;;;;;5.28;2.97;;;2.40;96.20;;;;;;4988565;28;20077;-78
2023/02/07 02:23:05;;;;;;;10.60;2.20;;;2.40;87.80;;;;;;4988985;28;20539;-78
2023/02/07 02:25:49;;;;;;;3.85;2.00;;;2.40;97.30;;;;;;4990163;28;20030;-79
2023/02/07 02:28:21;;;;;;;4.28;2.38;;;2.40;87.40;;;;;;4988897;28;20113;-79
2023/02/07 02:31:05;;;;;;;5.50;3.10;;;2.50;97.40;;;;;;4989792;28;20511;-78
2023/02/07 02:33:48;;;;;;;9.05;2.42;;;2.40;91.30;;;;;;4989960;28;20030;-78
2023/02/07 02:36:38;;;;;;;5.93;3.40;;;2.40;97.20;;;;;;4989626;28;20792;-78
2023/02/07 02:39:18;;;;;;;4.32;2.35;;;2.30;96.50;;;;;;4989887;28;20189;-78
2023/02/07 02:41:52;;;;;;;4.32;2.55;;;;;;;;;;4989967;28;20030;-78
2023/02/07 02:44:28;;;;;;;6.00;2.50;;;2.40;87.10;;;;;;4990057;28;20030;-78
2023/02/07 02:46:55;;;;;;;4.55;2.95;;;2.30;94.50;;;;;;4989798;28;20065;-78
2023/02/07 02:49:22;;;;;;;5.20;2.33;;;2.20;87.20;;;;;;4989643;28;20021;-78
2023/02/07 02:51:51;;;;;;;4.43;2.90;;;2.30;87.20;;;;;;4989464;28;20038;-79
2023/02/07 02:54:26;;;;;;;2.13;1.95;;;2.30;86.50;;;;;;4989744;28;20487;-78
2023/02/07 02:57:39;;;;;;;3.63;2.10;;;2.20;86.80;;;;;;4989353;28;20058;-78
2023/02/07 03:00:26;;;;;;;5.28;2.40;;;1.80;92.20;;;;;;4967444;28;20050;-78
2023/02/07 03:02:52;;;;;;;4.82;3.33;;;;;;;;;;4967594;28;20396;-78
2023/02/07 03:06:03;;;;;;;5.93;3.05;;;1.90;96.70;;;;;;4967971;28;20042;-78
2023/02/07 03:08:53;;;;;;;4.80;3.03;;;1.90;87.60;;;;;;4967990;28;20086;-79
2023/02/07 03:11:21;;;;;;;3.40;3.00;;;;;;;;;;4967708;28;20508;-78
2023/02/07 03:14:00;;;;;;;6.18;2.65;;;1.90;90.50;;;;;;4951297;28;20543;-78
2023/02/07 03:16:51;;;;;;;9.82;2.83;;;1.90;87.10;;;;;;4967761;28;20094;-79
2023/02/07 03:19:58;;;;;;;2.10;1.77;;;1.90;87.50;;;;;;4967490;28;20027;-78
2023/02/07 03:22:27;;;;;;;5.72;3.65;;;2.00;87.50;;;;;;4968600;28;20450;-78
2023/02/07 03:24:56;;;;;;;3.63;2.28;;;2.00;97.20;;;;;;4971373;28;20034;-78
2023/02/07 03:27:23;;;;;;;8.95;1.75;;;2.20;97.30;;;;;;4971408;28;20508;-78
2023/02/07 03:29:56;;;;;;;3.88;2.38;;;2.00;86.70;;;;;;4971029;28;20047;-79
2023/02/07 03:32:28;;;;;;;9.80;2.38;;;1.90;97.00;;;;;;4954741;28;20034;-78
2023/02/07 03:35:02;;;;;;;3.08;2.45;;;2.00;86.60;;;;;;4970894;28;20045;-79
2023/02/07 03:37:41;;;;;;;3.08;1.90;;;2.10;94.00;;;;;;4990289;28;20693;-78
2023/02/07 03:40:08;;;;;;;3.03;2.00;;;1.90;88.60;;;;;;4992789;28;20033;-78
2023/02/07 03:42:38;;;;;;;3.60;2.72;;;1.80;93.00;;;;;;5007622;28;20038;-78
2023/02/07 03:45:07;;;;;;;2.58;2.33;;;1.80;91.10;;;;;;4992730;28;20065;-78
2023/02/07 03:47:33;;;;;;;2.53;2.08;;;;;;;;;;4992722;28;20205;-78
2023/02/07 03:49:59;;;;;;;5.25;2.30;;;;;;;;;;4993219;28;20065;-78
2023/02/07 03:52:25;;;;;;;3.00;2.03;;;;;;;;;;4992534;28;20466;-78
2023/02/07 03:54:51;;;;;;;4.25;2.55;;;;;;;;;;4993230;28;20034;-78
2023/02/07 03:57:17;;;;;;;2.63;1.90;;;;;;;;;;4992619;28;20038;-78
2023/02/07 03:59:43;;;;;;;4.78;2.55;;;;;;;;;;4992601;28;20462;-78
2023/02/07 04:02:09;;;;;;;4.35;1.98;;;;;;;;;;4992507;28;20022;-79
2023/02/07 04:04:36;;;;;;;3.10;2.15;;;;;;;;;;4992668;28;20435;-78
2023/02/07 04:07:01;;;;;;;2.90;2.50;;;1.70;96.90;;;;;;4992894;28;20105;-78
2023/02/07 04:09:27;;;;;;;2.72;2.50;;;;;;;;;;4992716;28;20539;-78
2023/02/07 04:11:53;;;;;;;3.03;2.13;;;;;;;;;;4992528;28;20022;-79
2023/02/07 04:14:20;;;;;;;3.95;1.98;;;;;;;;;;4992692;28;20611;-78
2023/02/07 04:16:47;;;;;;;4.18;2.42;;;1.40;97.40;;;;;;4992737;28;20513;-78
2023/02/07 04:19:13;;;;;;;8.65;2.45;;;;;;;;;;4992767;28;20046;-78
2023/02/07 04:21:39;;;;;;;6.65;2.97;;;;;;;;;;4992012;28;20061;-78
2023/02/07 04:24:05;;;;;;;3.92;2.85;;;;;;;;;;4992350;28;20031;-78
2023/02/07 04:26:31;;;;;;;5.70;2.35;;;;;;;;;;4992055;28;20061;-78
2023/02/07 04:28:57;;;;;;;7.95;2.13;;;;;;;;;;4992293;28;20019;-78
2023/02/07 04:31:23;;;;;;;4.35;2.80;;;;;;;;;;4991905;28;20498;-78
2023/02/07 04:33:49;;;;;;;4.47;2.53;;;;;;;;;;4990876;28;20240;-78
2023/02/07 04:36:15;;;;;;;2.47;1.45;;;;;;;;;;4991902;28;20041;-78
2023/02/07 04:38:41;;;;;;;2.95;2.10;;;;;;;;;;5023457;28;20060;-78
2023/02/07 04:41:07;;;;;;;3.85;1.92;;;;;;;;;;4991726;28;20049;-78
2023/02/07 04:43:35;;;;;;;2.42;1.63;;;1.40;87.30;;;;;;4991518;28;20038;-79
2023/02/07 04:46:02;;;;;;;3.28;1.98;;;1.90;87.70;;;;;;4992090;28;20045;-78
2023/02/07 04:48:29;;;;;;;1.95;1.75;;;;;;;;;;5006546;28;20027;-78
2023/02/07 04:50:54;;;;;;;2.60;1.60;;;1.50;92.90;;;;;;4991780;28;20081;-78
2023/02/07 04:53:20;;;;;;;3.75;2.80;;;;;;;;;;4991556;28;20588;-78
2023/02/07 04:55:51;;;;;;;2.95;1.42;;;1.40;97.30;;;;;;4991576;28;20026;-78
2023/02/07 04:58:18;;;;;;;4.00;1.83;;;1.40;86.80;;;;;;4991487;28;20506;-79
2023/02/07 05:00:44;;;;;;;5.35;2.65;;;;;;;;;;4991466;28;20050;-78
2023/02/07 05:03:10;;;;;;;6.75;2.88;;;;;;;;;;4991522;28;20023;-78
2023/02/07 05:05:43;;;;;;;4.50;1.98;;;1.40;97.20;;;;;;4991665;28;20113;-78
2023/02/07 05:08:09;;;;;;;5.13;2.70;;;1.40;86.90;;;;;;4991605;28;20026;-78
2023/02/07 05:10:36;;;;;;;2.67;2.05;;;1.30;91.60;;;;;;4991388;28;20038;-78
2023/02/07 05:13:02;;;;;;;2.28;2.08;;;;;;;;;;4991535;28;20022;-78
2023/02/07 05:15:28;;;;;;;4.45;1.83;;;;;;;;;;5022989;28;20144;-78
2023/02/07 05:17:55;;;;;;;3.60;2.17;;;1.70;97.20;;;;;;4991643;28;20194;-78
2023/02/07 05:20:22;;;;;;;12.95;1.88;;;;;;;;;;4990794;28;20427;-78
2023/02/07 05:22:48;;;;;;;2.55;1.67;;;1.30;91.20;;;;;;4990990;28;20105;-78
2023/02/07 05:25:14;;;;;;;3.35;1.80;;;;;;;;;;4991019;28;20118;-78
2023/02/07 05:27:40;;;;;;;1.73;1.58;;;;;;;;;;4991216;28;20027;-78
2023/02/07 05:30:07;;;;;;;3.05;1.52;;;1.20;86.30;;;;;;4991100;28;20026;-78
2023/02/07 05:35:17;;;;;;;4.78;2.60;;;;;;;;;;4990963;28;20143;-78
2023/02/07 05:37:43;;;;;;;4.13;2.03;;;;;;;;;;4990918;28;20023;-78
2023/02/07 05:40:11;;;;;;;2.78;2.08;;;;;;;;;;4990744;28;20137;-78
2023/02/07 05:42:37;;;;;;;7.28;2.55;;;;;;;;;;4990588;28;20499;-78
2023/02/07 05:45:03;;;;;;;2.78;1.45;;;;;;;;;;4990832;28;20054;-78
2023/02/07 05:47:29;;;;;;;3.75;3.05;;;;;;;;;;4990869;28;20507;-79
2023/02/07 05:49:55;;;;;;;4.30;2.15;;;1.20;97.50;;;;;;4990315;28;20038;-78
2023/02/07 05:52:21;;;;;;;6.28;2.80;;;;;;;;;;4990437;28;20018;-79
2023/02/07 05:54:47;;;;;;;4.10;1.88;;;;;;;;;;4990712;28;20037;-78
2023/02/07 05:57:13;;;;;;;2.70;1.90;;;;;;;;;;4990472;28;20412;-79
2023/02/07 05:59:39;;;;;;;3.22;2.17;;;;;;;;;;4990764;28;20023;-78
2023/02/07 06:02:05;;;;;;;2.55;1.38;;;;;;;;;;4990559;28;20399;-78
2023/02/07 06:04:31;;;;;;;4.28;1.98;;;;;;;;;;4990494;28;20026;-77
2023/02/07 06:06:57;;;;;;;3.55;1.67;;;;;;;;;;4990516;28;20403;-78
2023/02/07 06:09:23;;;;;;;5.22;2.35;;;;;;;;;;4990169;28;20037;-78
2023/02/07 06:11:49;;;;;;;3.95;1.75;;;;;;;;;;4990421;28;20097;-78
2023/02/07 06:14:15;;;;;;;1.75;1.65;;;;;;;;;;4990507;28;20031;-78
2023/02/07 06:16:41;;;;;;;4.63;1.90;;;;;;;;;;5021941;28;20026;-78
2023/02/07 06:19:07;;;;;;;3.33;1.92;;;;;;;;;;4990625;28;20034;-78
2023/02/07 06:21:33;;;;;;;4.55;2.85;;;;;;;;;;4989963;28;20112;-78
2023/02/07 06:23:59;;;;;;;3.42;1.70;;;;;;;;;;4990261;28;20034;-79
2023/02/07 06:26:25;;;;;;;4.50;2.20;;;;;;;;;;4990365;28;20031;-78
2023/02/07 06:28:50;;;;;;;1.58;1.20;;;1.10;93.60;;;;;;5009928;28;20118;-78
2023/02/07 06:31:16;;;;;;;4.45;3.38;;;;;;;;;;4988417;28;20023;-78
2023/02/07 06:33:42;;;;;;;3.88;2.53;;;;;;;;;;4988819;28;20026;-78
2023/02/07 06:36:09;;;;;;;2.22;1.98;;;;;;;;;;4988790;28;20037;-77
2023/02/07 06:38:35;;;;;;;3.97;2.53;;;;;;;;;;4988031;28;20617;-78
2023/02/07 06:41:01;;;;;;;2.65;2.45;;;;;;;;;;4988016;28;20061;-78
2023/02/07 06:43:27;;;;;;;3.88;1.95;;;;;;;;;;4987120;28;20026;-78
2023/02/07 06:45:53;;;;;;;2.45;2.00;;;;;;;;;;4988059;28;20853;-78
2023/02/07 06:48:19;;;;;;;1.73;1.63;;;;;;;;;;4988280;28;20129;-78
2023/02/07 06:50:45;;;;;;;3.20;2.28;;;;;;;;;;4987339;28;20035;-78
2023/02/07 06:53:11;;;;;;;5.40;2.83;;;;;;;;;;4987876;28;20033;-78
2023/02/07 06:55:38;;;;;;;13.85;2.90;;;1.30;89.00;;;;;;4987873;28;20030;-77
2023/02/07 06:58:05;;;;;;;;;;;1.30;89.20;;;;;;4987818;28;20026;-80
2023/02/07 07:00:31;;;;;;;3.35;2.08;;;;;;;;;;4987754;28;19921;-82
2023/02/07 07:02:57;;;;;;;3.75;2.88;;;1.90;93.60;;;;;;4988295;28;20448;-83
2023/02/07 07:05:23;;;;;;;2.63;1.83;;;;;;;;;;4988194;28;20066;-83
2023/02/07 07:07:50;;;;;;;4.38;2.80;;;1.40;98.80;;;;;;4987378;28;20192;-82
2023/02/07 07:10:16;;;;;;;3.63;2.15;;;1.40;96.00;;;;;;4986450;28;20036;-82
2023/02/07 07:12:42;;;;;;;6.85;2.83;;;;;;;;;;4987805;28;20022;-82
2023/02/07 07:15:08;;;;;;;2.13;1.65;;;1.50;98.60;;;;;;4987865;28;20022;-81
2023/02/07 07:17:33;;;;;;;10.60;2.28;;;1.50;98.70;;;;;;5011510;28;20033;-83
2023/02/07 07:19:59;;;;;;;4.13;1.77;;;;;;;;;;4988050;28;20039;-83
2023/02/07 07:22:26;;;;;;;2.78;2.47;;;;;;;;;;4983358;28;20065;-83
2023/02/07 07:24:51;;;;;;;3.83;2.05;;;1.60;98.40;;;;;;4985143;28;20036;-82
2023/02/07 07:27:17;;;;;;;3.80;2.45;;;;;;;;;;4987248;28;20394;-83
2023/02/07 07:29:43;;;;;;;3.53;1.88;;;1.70;91.10;;;;;;4986523;28;20061;-82
2023/02/07 07:32:12;;;;;;;5.68;2.70;;;;;;;;;;4987461;28;20031;-82
2023/02/07 07:34:38;;;;;;;4.22;2.95;;;1.90;87.40;;;;;;4987600;28;20059;-82
2023/02/07 07:37:04;;;;;;;6.32;2.67;;;;;;;;;;4987525;28;20022;-83
2023/02/07 07:39:30;;;;;;;1.65;1.55;;;;;;;;;;4987760;28;20053;-82
2023/02/07 07:41:56;;;;;;;1.98;1.45;;;;;;;;;;4987907;28;20026;-83
2023/02/07 07:44:22;;;;;;;5.60;2.13;;;;;;;;;;4986277;28;20504;-76
2023/02/07 07:46:49;;;;;;;2.40;1.80;;;;;;;;;;4987579;28;20022;-80
2023/02/07 07:49:15;;;;;;;2.95;2.00;;;;;;;;;;4987453;28;20636;-80
2023/02/07 07:51:41;;;;;;;3.13;2.83;;;2.60;91.00;;;;;;4986591;28;20081;-80
2023/02/07 07:54:07;;;;;;;5.07;2.65;;;;;;;;;;4987285;28;20023;-79
2023/02/07 07:56:34;;;;;;;6.22;2.17;;;;;;;;;;4987588;28;20031;-79
2023/02/07 07:59:00;;;;;;;5.45;2.78;;;;;;;;;;4986055;28;20518;-78
2023/02/07 08:01:26;;;;;;;2.97;2.35;;;2.40;89.20;;;;;;4987315;28;20495;-79
2023/02/07 08:03:52;;;;;;;2.10;1.85;;;;;;;;;;4985953;28;20037;-79
2023/02/07 08:06:18;;;;;;;3.22;2.40;;;;;;;;;;4983483;28;20026;-79
2023/02/07 08:08:44;;;;;;;4.05;2.40;;;3.10;90.10;;;;;;4985993;28;20484;-79
2023/02/07 08:11:10;;;;;;;8.30;2.70;;;;;;;;;;4988228;28;20041;-78
2023/02/07 08:13:36;;;;;;;10.05;2.83;;;;;;;;;;4989899;28;20045;-82
2023/02/07 08:16:04;;;;;;;5.47;2.80;;;4.50;95.40;;;;;;4976997;28;20150;-81
2023/02/07 08:18:30;;;;;;;11.80;2.50;;;;;;;;;;4990095;28;20022;-78
2023/02/07 08:20:56;;;;;;;6.72;2.38;;;4.70;92.80;;;;;;4990057;28;20909;-80
2023/02/07 08:23:22;;;;;;;5.13;2.58;;;6.50;80.90;;;;;;4990173;28;20106;-82
2023/02/07 08:25:49;;;;;;;2.70;2.35;;;;;;;;;;5022023;28;20035;-81
2023/02/07 08:28:15;;;;;;;5.68;3.05;;;15.00;71.90;;;;;;4990465;28;20508;-82
2023/02/07 08:30:41;;;;;;;4.13;3.40;;;16.90;51.00;;;;;;4996278;28;20036;-83
2023/02/07 08:33:07;;;;;;;4.95;3.00;;;;;;;;;;4990113;28;20487;-83
2023/02/07 08:35:33;;;;;;;6.10;4.15;;;;;;;;;;4990453;28;20115;-79
2023/02/07 08:37:59;;;;;;;5.07;3.95;;;;;;;;;;4990430;28;20513;-80
2023/02/07 08:40:25;;;;;;;5.00;3.97;;;26.80;38.00;;;;;;4990176;28;20042;-79
2023/02/07 08:42:51;;;;;;;4.70;3.08;;;28.50;39.60;;;;;;4990000;28;20101;-82
2023/02/07 08:45:17;;;;;;;3.75;2.90;;;29.40;33.60;;;;;;4990091;28;20073;-81
2023/02/07 08:47:43;;;;;;;3.90;2.63;;;30.20;33.00;;;;;;4990035;28;20038;-80
2023/02/07 08:50:11;;;;;;;6.43;2.80;;;30.80;32.30;;;;;;4990123;28;20095;-79
2023/02/07 08:52:36;;;;;;;;;;;30.60;32.70;;;;;;5005086;28;20034;-79
2023/02/07 08:55:02;;;;;;;3.53;2.60;;;;;;;;;;4990454;28;19909;-78
2023/02/07 08:57:28;;;;;;;3.93;2.57;;;;;;;;;;4989498;28;20034;-78
2023/02/07 08:59:54;;;;;;;4.53;2.50;;;33.00;30.90;;;;;;4990250;28;20041;-78
2023/02/07 09:02:20;;;;;;;5.33;3.30;;;33.20;29.70;;;;;;4990116;28;20423;-79
2023/02/07 09:04:46;;;;;;;5.17;2.87;;;;;;;;;;4990097;28;20030;-77
2023/02/07 09:07:12;;;;;;;7.80;3.33;;;33.40;28.30;;;;;;4989815;28;20035;-76
2023/02/07 09:09:39;;;;;;;3.08;2.42;;;33.70;36.60;;;;;;4989916;28;20082;-77
2023/02/07 09:12:05;;;;;;;5.00;2.97;;;33.70;36.20;;;;;;4989762;28;20384;-78
2023/02/07 09:14:31;;;;;;;4.28;2.65;;;34.00;30.90;;;;;;4989585;28;20126;-79
2023/02/07 09:16:57;;;;;;;3.77;2.60;;;34.20;30.00;;;;;;4989300;28;20109;-77
2023/02/07 09:19:23;;;;;;;5.43;2.40;;;;;;;;;;4988575;28;20085;-77
2023/02/07 09:21:48;;;;;;;4.28;2.60;;;34.90;34.50;;;;;;4989384;28;20105;-76
2023/02/07 09:24:14;;;;;;;4.37;3.10;;;;;;;;;;4989545;28;20833;-76
2023/02/07 09:26:40;;;;;;;6.20;4.10;;;;;;;;;;4990059;28;20026;-78
2023/02/07 09:29:07;;;;;;;5.00;3.10;;;;;;;;;;4989077;28;20061;-78
2023/02/07 09:31:33;;;;;;;5.68;3.50;;;33.80;25.40;;;;;;4987418;28;20822;-77
2023/02/07 09:34:01;;;;;;;5.32;2.97;;;;;;;;;;4989755;28;20057;-86
2023/02/07 09:36:28;;;;;;;6.15;2.92;;;33.70;25.80;;;;;;4988511;28;20041;-82
2023/02/07 09:38:54;;;;;;;7.65;3.22;;;33.60;25.40;;;;;;4989283;28;20081;-80
2023/02/07 09:41:20;;;;;;;5.53;3.65;;;;;;;;;;4989434;28;20061;-77
2023/02/07 09:44:16;;;;;;;3.78;2.30;;;32.50;25.00;;;;;;4989600;28;20475;-76
2023/02/07 09:46:41;;;;;;;;;;;32.70;23.50;;;;;;4991575;28;20038;-80
2023/02/07 09:49:16;;;;;;;4.83;3.00;;;32.40;24.70;;;;;;4988769;28;19917;-81
2023/02/07 09:51:44;;;;;;;3.35;2.72;;;32.20;32.50;;;;;;4975785;28;20619;-77
2023/02/07 09:54:22;;;;;;;3.65;2.75;;;33.20;25.30;;;;;;4970423;28;20049;-78
2023/02/07 09:56:48;;;;;;;4.60;3.08;;;;;;;;;;5008439;28;20245;-78
2023/02/07 09:59:55;;;;;;;3.15;2.78;;;33.80;24.30;;;;;;5002770;28;20241;-79
2023/02/07 10:02:33;;;;;;;5.07;3.28;;;33.80;24.90;;;;;;4977458;28;20522;-78
2023/02/07 10:05:05;;;;;;;4.82;3.25;;;34.20;24.40;;;;;;4970270;28;20031;-78
2023/02/07 10:07:31;;;;;;;4.70;3.00;;;34.20;27.60;;;;;;4976854;28;20027;-77
2023/02/07 10:09:57;;;;;;;3.15;2.45;;;;;;;;;;4987796;28;20029;-78
2023/02/07 10:12:54;;;;;;;3.30;2.63;;;34.50;30.40;;;;;;4988715;28;20031;-77
2023/02/07 10:15:39;;;;;;;4.78;2.75;;;34.50;24.40;;;;;;4988251;28;20026;-77
2023/02/07 10:18:25;;;;;;;5.70;3.05;;;34.80;24.30;;;;;;4988269;28;20027;-78
2023/02/07 10:20:51;;;;;;;3.33;2.60;;;;;;;;;;4987703;28;20062;-79
2023/02/07 10:23:53;;;;;;;6.13;2.83;;;34.70;24.00;;;;;;4988706;28;20058;-78
2023/02/07 10:26:26;;;;;;;4.82;3.13;;;34.50;23.60;;;;;;4980227;28;20049;-78
2023/02/07 10:29:07;;;;;;;5.55;3.30;;;35.10;23.90;;;;;;5011084;28;20034;-85
2023/02/07 10:31:39;;;;;;;7.00;2.45;;;34.50;23.50;;;;;;4986715;28;20135;-78
2023/02/07 10:34:10;;;;;;;5.75;3.17;;;34.40;23.40;;;;;;4988750;28;20096;-79
2023/02/07 10:36:43;;;;;;;4.85;3.20;;;34.10;23.50;;;;;;4989560;28;20053;-79
2023/02/07 10:39:09;;;;;;;5.00;2.60;;;;;;;;;;4988993;28;20407;-78
2023/02/07 10:41:38;;;;;;;5.25;2.60;;;34.20;24.10;;;;;;4989009;28;20042;-78
2023/02/07 10:44:05;;;;;;;4.43;2.63;;;34.10;29.80;;;;;;4989002;28;20034;-78
2023/02/07 10:46:33;;;;;;;6.00;3.13;;;34.00;23.70;;;;;;4989428;28;20034;-78
2023/02/07 10:48:59;;;;;;;5.25;3.10;;;;;;;;;;4988329;28;20095;-76
2023/02/07 10:51:40;;;;;;;4.10;2.95;;;34.50;23.60;;;;;;4988762;28;20578;-79
2023/02/07 10:54:07;;;;;;;6.32;3.25;;;34.10;28.20;;;;;;4988277;28;20043;-77
2023/02/07 10:56:45;;;;;;;4.43;2.65;;;34.10;23.10;;;;;;4993422;28;20507;-78
2023/02/07 10:59:44;;;;;;;4.57;2.95;;;34.00;23.10;;;;;;4993403;28;20022;-78
2023/02/07 11:02:31;;;;;;;3.97;3.22;;;33.20;23.10;;;;;;4992378;28;20103;-78
2023/02/07 11:05:21;;;;;;;5.15;2.30;;;33.30;30.10;;;;;;4990691;28;20023;-78
2023/02/07 11:08:06;;;;;;;5.10;3.10;;;33.20;24.00;;;;;;4985214;28;20034;-78
2023/02/07 11:10:40;;;;;;;6.60;3.25;;;33.80;24.50;;;;;;4985456;28;20510;-78
2023/02/07 11:13:23;;;;;;;5.07;3.03;;;32.90;25.00;;;;;;4985576;28;20443;-79
2023/02/07 11:15:52;;;;;;;5.05;3.10;;;32.60;26.80;;;;;;4985304;28;20473;-78
2023/02/07 11:18:39;;;;;;;3.53;2.65;;;32.70;22.60;;;;;;4987557;28;20025;-78
2023/02/07 11:21:23;;;;;;;6.18;3.65;;;32.50;22.50;;;;;;4986725;28;20054;-79
2023/02/07 11:23:50;;;;;;;3.30;2.55;;;32.70;30.10;;;;;;4985046;28;20026;-78
2023/02/07 11:26:19;;;;;;;4.10;2.80;;;32.30;23.70;;;;;;4987724;28;20034;-78
2023/02/07 11:28:49;;;;;;;5.72;3.13;;;32.20;22.10;;;;;;4986689;28;20058;-78
2023/02/07 11:31:17;;;;;;;8.85;3.15;;;32.20;25.90;;;;;;4988022;28;20026;-84
2023/02/07 11:33:43;;;;;;;6.15;2.88;;;;;;;;;;4987719;28;20037;-78
2023/02/07 11:36:33;;;;;;;6.07;3.50;;;31.90;22.10;;;;;;4987941;28;20574;-78
2023/02/07 11:38:59;;;;;;;6.20;2.67;;;31.50;22.00;;;;;;4987286;28;20044;-77
2023/02/07 11:41:30;;;;;;;4.70;2.28;;;31.40;24.60;;;;;;4987547;28;20093;-83
2023/02/07 11:44:00;;;;;;;5.07;3.17;;;31.20;30.80;;;;;;4990783;28;20479;-81
2023/02/07 11:46:36;;;;;;;5.68;3.53;;;31.00;21.80;;;;;;5007513;28;20455;-81
2023/02/07 11:49:05;;;;;;;5.35;3.35;;;30.50;21.90;;;;;;4990601;28;20073;-85
2023/02/07 11:51:32;;;;;;;4.00;2.83;;;;;;;;;;4991880;28;20027;-82
2023/02/07 11:54:04;;;;;;;6.45;3.17;;;30.00;31.70;;;;;;4991345;28;20064;-81
2023/02/07 11:56:37;;;;;;;4.75;3.00;;;29.60;22.20;;;;;;4991801;28;20403;-86
2023/02/07 11:59:06;;;;;;;4.72;3.00;;;28.70;22.20;;;;;;4992097;28;20041;-90
2023/02/07 12:01:33;;;;;;;3.88;3.00;;;27.80;22.60;;;;;;4992092;28;20038;-91
2023/02/07 12:04:12;;;;;;;7.40;3.45;;;26.70;23.10;;;;;;4987055;28;20022;-89
2023/02/07 12:06:53;;;;;;;5.68;3.33;;;25.70;23.30;;;;;;5004866;28;20740;-90
2023/02/07 12:09:31;;;;;;;9.20;3.38;;;24.40;28.70;;;;;;4987929;28;20101;-78
2023/02/07 12:12:00;;;;;;;5.45;3.42;;;23.40;28.20;;;;;;4988989;28;20053;-78
2023/02/07 12:14:37;;;;;;;7.03;4.03;;;22.30;25.00;;;;;;4991133;28;20026;-78
2023/02/07 12:17:08;;;;;;;6.32;3.55;;;21.40;37.90;;;;;;4990961;28;20097;-78
2023/02/07 12:19:38;;;;;;;6.05;3.33;;;20.80;35.10;;;;;;4991644;28;20048;-77
2023/02/07 12:22:17;;;;;;;6.22;3.47;;;20.10;39.10;;;;;;4987909;28;20051;-77
2023/02/07 12:25:05;;;;;;;5.90;3.65;;;19.70;27.00;;;;;;4990297;28;20053;-85
2023/02/07 12:27:43;;;;;;;7.43;4.03;;;19.20;27.60;;;;;;4990299;28;20026;-86
2023/02/07 12:30:16;;;;;;;5.35;3.72;;;19.10;31.40;;;;;;4989154;28;20026;-86
2023/02/07 12:32:42;;;;;;;6.20;3.85;;;;;;;;;;4991110;28;20377;-80
2023/02/07 12:35:30;;;;;;;5.93;3.88;;;18.30;35.80;;;;;;4991935;28;20145;-79
2023/02/07 12:38:01;;;;;;;6.38;3.17;;;18.50;43.50;;;;;;4992071;28;20033;-78
2023/02/07 12:40:27;;;;;;;8.23;3.97;;;17.50;43.10;;;;;;4990641;28;20553;-75
2023/02/07 12:42:58;;;;;;;8.80;4.55;;;17.60;29.40;;;;;;4991149;28;20022;-77
2023/02/07 12:45:53;;;;;;;5.20;3.47;;;17.50;29.60;;;;;;4991194;28;20026;-76
2023/02/07 12:48:19;;;;;;;4.80;3.70;;;;;;;;;;4968648;28;20031;-78
2023/02/07 12:51:06;;;;;;;4.75;3.30;;;17.20;30.00;;;;;;4968464;28;20101;-77
2023/02/07 12:53:50;;;;;;;7.95;3.83;;;17.30;45.00;;;;;;4968007;28;20071;-77
2023/02/07 12:57:07;;;;;;;4.72;3.05;;;17.30;30.40;;;;;;4968544;28;20427;-78
2023/02/07 12:59:33;;;;;;;7.35;4.03;;;;;;;;;;4965570;28;20349;-78
2023/02/07 13:02:31;;;;;;;11.23;4.30;;;16.40;32.10;;;;;;4968425;28;20448;-77
2023/02/07 13:05:22;;;;;;;6.70;4.15;;;16.60;44.60;;;;;;4968599;28;20031;-78
2023/02/07 13:08:05;;;;;;;8.20;4.07;;;16.50;31.60;;;;;;4968257;28;20042;-80
2023/02/07 13:10:51;;;;;;;7.22;4.25;;;16.30;31.80;;;;;;4968181;28;20093;-76
2023/02/07 13:13:26;;;;;;;6.47;3.65;;;16.20;31.90;;;;;;4968589;28;20420;-78
2023/02/07 13:15:52;;;;;;;13.50;4.70;;;;;;;;;;4967968;28;20122;-78
2023/02/07 13:18:43;;;;;;;5.97;4.03;;;16.00;32.50;;;;;;4968226;28;20121;-77
2023/02/07 13:21:14;;;;;;;6.43;3.85;;;15.80;32.60;;;;;;4967014;28;20089;-78
2023/02/07 13:23:44;;;;;;;5.13;3.88;;;15.90;32.70;;;;;;4967171;28;20031;-78
2023/02/07 13:26:15;;;;;;;5.88;4.53;;;16.00;33.10;;;;;;4987778;28;20039;-78
2023/02/07 13:29:03;;;;;;;6.00;3.70;;;15.60;40.70;;;;;;4990004;28;20034;-79
2023/02/07 13:31:29;;;;;;;6.75;3.97;;;;;;;;;;4989875;28;20057;-80
2023/02/07 13:33:55;;;;;;;6.53;4.40;;;16.20;35.70;;;;;;4990351;28;20082;-79
2023/02/07 13:36:44;;;;;;;6.00;4.03;;;15.70;33.20;;;;;;4990157;28;20014;-79
2023/02/07 13:39:40;;;;;;;6.60;3.92;;;15.60;33.40;;;;;;4989500;28;20073;-80
2023/02/07 13:42:35;;;;;;;6.90;4.22;;;15.20;48.60;;;;;;4990087;28;20072;-78
2023/02/07 13:45:12;;;;;;;5.25;3.70;;;15.40;33.70;;;;;;4989608;28;20579;-77
2023/02/07 13:47:42;;;;;;;;;;;15.30;34.00;;;;;;4991005;28;20030;-87
2023/02/07 13:50:30;;;;;;;8.50;3.58;;;15.10;34.20;;;;;;4989557;28;20378;-79
2023/02/07 13:53:17;;;;;;;6.30;2.92;;;15.00;46.60;;;;;;4989424;28;20037;-78
2023/02/07 13:55:43;;;;;;;7.22;4.13;;;15.10;34.40;;;;;;4989675;28;20418;-81